createdAt,value
2022-09-14T00:00:42.539Z,13.30
2022-09-14T00:12:52.384Z,12.57
2022-09-14T00:15:19.197Z,12.93
2022-09-14T00:17:45.912Z,12.65
2022-09-14T00:20:12.749Z,12.55
2022-09-14T00:22:39.358Z,13.00
2022-09-14T00:25:06.433Z,12.38
2022-09-14T00:27:33.176Z,11.95
2022-09-14T00:29:59.845Z,12.75
2022-09-14T00:32:26.523Z,12.77
2022-09-14T00:34:54.252Z,12.40
2022-09-14T00:37:20.852Z,13.90
2022-09-14T00:39:48.602Z,13.52
2022-09-14T00:42:16.382Z,15.30
2022-09-14T00:44:42.944Z,16.83
2022-09-14T00:47:09.648Z,18.73
2022-09-14T00:49:38.043Z,17.48
2022-09-14T00:52:10.544Z,16.63
2022-09-14T00:54:41.138Z,17.00
2022-09-14T00:57:08.105Z,17.65
2022-09-14T00:59:37.126Z,15.43
2022-09-14T01:02:04.960Z,16.30
2022-09-14T01:04:31.787Z,17.65
2022-09-14T01:07:15.283Z,18.85
2022-09-14T01:09:52.210Z,19.48
2022-09-14T01:12:37.357Z,18.83
2022-09-14T01:15:20.292Z,17.58
2022-09-14T01:17:52.933Z,18.23
2022-09-14T01:23:50.102Z,18.58
2022-09-14T01:26:31.748Z,19.88
2022-09-14T01:31:47.233Z,22.13
2022-09-14T01:37:03.759Z,27.83
2022-09-14T01:39:31.823Z,24.90
2022-09-14T01:41:59.583Z,27.48
2022-09-14T01:49:39.934Z,22.98
2022-09-14T01:52:29.933Z,26.05
2022-09-14T02:05:56.845Z,20.80
2022-09-14T02:08:26.072Z,21.67
2022-09-14T02:10:52.788Z,19.77
2022-09-14T02:13:19.440Z,21.05
2022-09-14T02:15:46.184Z,19.40
2022-09-14T02:18:12.831Z,19.83
2022-09-14T02:28:08.823Z,20.85
2022-09-14T02:30:55.733Z,21.50
2022-09-14T02:35:50.356Z,21.40
2022-09-14T02:43:16.801Z,20.52
2022-09-14T02:45:43.492Z,18.95
2022-09-14T02:48:18.945Z,17.95
2022-09-14T02:51:12.428Z,18.67
2022-09-14T02:53:45.172Z,17.25
2022-09-14T02:58:39.684Z,19.52
2022-09-14T03:01:07.695Z,20.65
2022-09-14T03:03:35.742Z,20.70
2022-09-14T03:06:02.874Z,21.95
2022-09-14T03:08:29.547Z,21.25
2022-09-14T03:13:21.800Z,22.65
2022-09-14T03:15:48.454Z,23.10
2022-09-14T03:18:15.180Z,22.92
2022-09-14T03:20:42.115Z,22.42
2022-09-14T03:23:10.843Z,20.80
2022-09-14T03:30:30.511Z,23.98
2022-09-14T03:32:58.567Z,24.98
2022-09-14T03:35:25.398Z,25.60
2022-09-14T03:37:52.028Z,24.73
2022-09-14T03:45:10.803Z,25.10
2022-09-14T03:47:37.923Z,26.98
2022-09-14T03:50:04.667Z,24.98
2022-09-14T03:57:22.337Z,26.17
2022-09-14T03:59:49.001Z,25.88
2022-09-14T04:02:15.763Z,24.10
2022-09-14T04:04:42.497Z,23.30
2022-09-14T04:07:09.109Z,22.48
2022-09-14T04:16:52.365Z,21.90
2022-09-14T04:19:19.024Z,21.65
2022-09-14T04:21:45.915Z,21.65
2022-09-14T04:26:39.168Z,20.77
2022-09-14T04:29:06.227Z,22.95
2022-09-14T04:31:33.424Z,23.50
2022-09-14T04:34:00.895Z,23.35
2022-09-14T04:36:31.131Z,24.77
2022-09-14T04:46:19.847Z,22.70
2022-09-14T04:53:46.350Z,23.48
2022-09-14T04:56:14.221Z,23.15
2022-09-14T04:58:48.326Z,20.88
2022-09-14T05:03:44.962Z,23.95
2022-09-14T05:06:15.969Z,22.55
2022-09-14T05:25:58.255Z,22.90
2022-09-14T05:33:16.711Z,24.38
2022-09-14T05:38:08.849Z,23.83
2022-09-14T05:40:35.504Z,23.05
2022-09-14T05:43:02.147Z,23.30
2022-09-14T05:45:28.813Z,26.13
2022-09-14T05:47:55.422Z,23.90
2022-09-14T05:50:23.261Z,24.92
2022-09-14T05:52:51.580Z,22.80
2022-09-14T05:55:18.299Z,22.63
2022-09-14T05:57:48.463Z,22.70
2022-09-14T06:00:15.444Z,23.45
2022-09-14T06:02:52.584Z,21.60
2022-09-14T06:05:20.112Z,21.35
2022-09-14T06:07:50.457Z,21.67
2022-09-14T06:27:15.692Z,18.05
2022-09-14T06:29:42.366Z,17.05
2022-09-14T06:32:10.295Z,16.88
2022-09-14T06:34:36.961Z,16.20
2022-09-14T06:37:03.563Z,15.55
2022-09-14T06:39:30.256Z,14.00
2022-09-14T06:41:56.885Z,15.07
2022-09-14T06:44:23.531Z,14.77
2022-09-14T06:49:20.851Z,14.32
2022-09-14T06:51:47.678Z,13.13
2022-09-14T07:01:37.006Z,10.90
2022-09-14T07:04:04.142Z,11.45
2022-09-14T07:06:32.288Z,12.43
2022-09-14T07:08:58.889Z,10.45
2022-09-14T07:11:26.930Z,10.98
2022-09-14T07:13:54.828Z,10.48
2022-09-14T07:16:21.841Z,10.43
2022-09-14T07:23:41.547Z,10.05
2022-09-14T07:26:09.775Z,9.77
2022-09-14T07:28:36.918Z,9.80
2022-09-14T07:31:04.352Z,9.35
2022-09-14T07:33:31.135Z,9.10
2022-09-14T07:45:49.000Z,8.07
2022-09-14T07:48:15.837Z,8.00
2022-09-14T07:50:42.593Z,7.68
2022-09-14T07:55:34.687Z,7.50
2022-09-14T07:58:01.355Z,7.40
2022-09-14T08:02:55.388Z,7.38
2022-09-14T08:05:22.431Z,7.63
2022-09-14T08:18:13.221Z,7.80
2022-09-14T08:20:39.923Z,6.30
2022-09-14T08:23:06.452Z,6.78
2022-09-14T08:25:33.038Z,6.50
2022-09-14T08:27:59.645Z,6.75
2022-09-14T08:30:26.612Z,6.57
2022-09-14T08:32:53.144Z,6.68
2022-09-14T08:37:45.255Z,6.32
2022-09-14T08:40:13.044Z,6.88
2022-09-14T08:45:09.699Z,6.40
2022-09-14T08:47:38.972Z,6.00
2022-09-14T08:55:21.052Z,6.20
2022-09-14T08:57:55.335Z,5.93
2022-09-14T09:05:39.100Z,5.80
2022-09-14T09:10:41.097Z,5.70
2022-09-14T09:13:10.778Z,6.30
2022-09-14T09:15:41.308Z,5.22
2022-09-14T09:18:09.095Z,4.38
2022-09-14T09:23:26.816Z,5.03
2022-09-14T09:25:53.394Z,4.88
2022-09-14T09:28:20.205Z,5.00
2022-09-14T09:30:47.142Z,5.03
2022-09-14T09:38:17.378Z,5.85
2022-09-14T09:43:21.189Z,5.13
2022-09-14T09:45:57.537Z,4.30
2022-09-14T09:51:07.334Z,4.65
2022-09-14T09:58:34.386Z,4.57
2022-09-14T10:03:33.480Z,4.40
2022-09-14T10:06:08.111Z,4.20
2022-09-14T10:16:13.532Z,3.80
2022-09-14T10:22:04.729Z,3.65
2022-09-14T10:24:33.080Z,3.60
2022-09-14T10:26:59.688Z,3.83
2022-09-14T10:32:17.773Z,3.67
2022-09-14T10:34:44.599Z,3.65
2022-09-14T10:37:20.450Z,3.30
2022-09-14T10:39:52.742Z,3.30
2022-09-14T10:42:38.451Z,3.95
2022-09-14T10:45:17.697Z,3.75
2022-09-14T10:47:53.177Z,3.70
2022-09-14T10:50:32.475Z,2.95
2022-09-14T10:53:05.153Z,3.60
2022-09-14T11:05:43.781Z,3.22
2022-09-14T11:08:19.750Z,3.65
2022-09-14T11:21:10.357Z,3.13
2022-09-14T11:23:48.030Z,3.28
2022-09-14T11:26:17.391Z,3.10
2022-09-14T11:28:49.622Z,2.92
2022-09-14T11:34:00.334Z,3.33
2022-09-14T11:36:31.248Z,2.92
2022-09-14T11:39:13.218Z,3.30
2022-09-14T11:54:49.072Z,2.60
2022-09-14T12:02:27.947Z,2.92
2022-09-14T12:05:13.849Z,2.63
2022-09-14T12:20:42.931Z,2.95
2022-09-14T12:25:54.836Z,3.60
2022-09-14T12:28:28.585Z,3.60
2022-09-14T12:30:55.281Z,3.60
2022-09-14T12:33:37.051Z,3.28
2022-09-14T12:36:07.442Z,3.35
2022-09-14T12:38:37.180Z,3.40
2022-09-14T12:43:50.206Z,3.70
2022-09-14T12:46:20.233Z,3.00
2022-09-14T12:48:46.957Z,3.75
2022-09-14T12:51:22.652Z,3.80
2022-09-14T12:56:24.297Z,3.17
2022-09-14T13:01:24.995Z,3.88
2022-09-14T13:03:53.720Z,3.88
2022-09-14T13:08:48.434Z,4.28
2022-09-14T13:16:23.046Z,4.22
2022-09-14T13:21:20.053Z,3.88
2022-09-14T13:23:47.160Z,4.60
2022-09-14T13:26:20.796Z,4.57
2022-09-14T13:28:48.586Z,3.90
2022-09-14T13:36:16.647Z,6.40
2022-09-14T13:38:43.496Z,7.78
2022-09-14T13:41:16.230Z,11.95
2022-09-14T13:46:46.176Z,12.32
2022-09-14T13:49:13.230Z,11.25
2022-09-14T13:51:40.071Z,11.15
2022-09-14T13:54:17.602Z,11.10
2022-09-14T13:56:44.734Z,9.90
2022-09-14T13:59:21.767Z,11.00
2022-09-14T14:01:56.277Z,11.30
2022-09-14T14:04:25.588Z,14.30
2022-09-14T14:06:59.084Z,14.10
2022-09-14T14:09:37.548Z,13.43
2022-09-14T14:12:04.200Z,14.15
2022-09-14T14:14:31.690Z,14.27
2022-09-14T14:17:13.663Z,13.48
2022-09-14T14:19:40.665Z,12.00
2022-09-14T14:22:36.294Z,13.68
2022-09-14T14:25:17.964Z,12.77
2022-09-14T14:27:46.340Z,12.60
2022-09-14T14:30:15.159Z,13.77
2022-09-14T14:32:41.964Z,16.98
2022-09-14T14:42:32.441Z,17.05
2022-09-14T14:45:00.705Z,17.13
2022-09-14T14:47:27.704Z,18.02
2022-09-14T14:54:46.350Z,21.00
2022-09-14T14:57:13.618Z,22.30
2022-09-14T14:59:40.389Z,23.05
2022-09-14T15:02:07.013Z,24.00
2022-09-14T15:06:59.238Z,22.00
2022-09-14T15:09:27.581Z,20.92
2022-09-14T15:11:54.850Z,21.85
2022-09-14T15:14:26.537Z,23.70
2022-09-14T15:19:23.512Z,24.35
2022-09-14T15:21:50.219Z,22.38
2022-09-14T15:24:16.935Z,24.52
2022-09-14T15:39:27.289Z,23.15
2022-09-14T15:41:54.460Z,22.48
2022-09-14T15:44:21.379Z,21.45
2022-09-14T15:46:48.570Z,19.27
2022-09-14T15:49:18.027Z,18.05
2022-09-14T15:51:46.494Z,18.02
2022-09-14T15:54:13.611Z,17.27
2022-09-14T15:56:40.794Z,16.75
2022-09-14T15:59:07.513Z,15.75
2022-09-14T16:01:34.287Z,16.02
2022-09-14T16:04:02.218Z,14.52
2022-09-14T16:06:29.719Z,13.63
2022-09-14T16:16:16.228Z,11.52
2022-09-14T16:18:43.779Z,12.77
2022-09-14T16:23:47.721Z,13.30
2022-09-14T16:26:15.876Z,14.25
2022-09-14T16:28:43.388Z,13.85
2022-09-14T16:36:08.926Z,12.88
2022-09-14T16:38:37.016Z,12.57
2022-09-14T16:56:20.166Z,11.18
2022-09-14T16:58:48.722Z,10.80
2022-09-14T17:01:16.786Z,12.68
2022-09-14T17:06:12.520Z,10.75
2022-09-14T17:08:43.555Z,10.10
2022-09-14T17:11:11.135Z,10.65
2022-09-14T17:13:39.017Z,10.75
2022-09-14T17:16:12.776Z,10.45
2022-09-14T17:18:41.144Z,10.07
2022-09-14T17:21:09.422Z,9.68
2022-09-14T17:28:35.151Z,11.25
2022-09-14T17:31:06.479Z,11.20
2022-09-14T17:33:36.395Z,10.50
2022-09-14T17:36:04.414Z,11.05
2022-09-14T17:50:48.655Z,10.93
2022-09-14T17:55:41.625Z,9.77
2022-09-14T17:58:08.688Z,8.85
2022-09-14T18:10:18.504Z,10.48
2022-09-14T18:12:50.033Z,9.18
2022-09-14T18:17:43.483Z,8.40
2022-09-14T18:20:11.911Z,8.00
2022-09-14T18:27:31.325Z,5.68
2022-09-14T18:30:00.094Z,4.40
2022-09-14T18:32:29.281Z,4.45
2022-09-14T18:34:55.969Z,3.78
2022-09-14T18:37:23.516Z,4.88
2022-09-14T18:42:15.922Z,4.25
2022-09-14T18:44:42.787Z,3.50
2022-09-14T18:47:11.057Z,1.60
2022-09-14T18:49:37.737Z,2.60
2022-09-14T18:52:05.545Z,2.20
2022-09-14T18:54:32.172Z,1.67
2022-09-14T18:56:58.888Z,1.40
2022-09-14T18:59:26.456Z,1.70
2022-09-14T19:11:36.653Z,1.40
2022-09-14T19:14:07.368Z,2.15
2022-09-14T19:16:34.113Z,1.48
2022-09-14T19:19:00.871Z,1.75
2022-09-14T19:21:28.284Z,1.60
2022-09-14T19:26:57.901Z,2.00
2022-09-14T19:29:25.070Z,1.80
2022-09-14T19:31:52.727Z,2.05
2022-09-14T19:36:45.733Z,2.08
2022-09-14T19:39:16.560Z,1.77
2022-09-14T19:41:44.207Z,1.30
2022-09-14T19:44:11.297Z,2.05
2022-09-14T19:46:39.584Z,1.95
2022-09-14T19:49:20.063Z,1.55
2022-09-14T19:51:47.539Z,1.77
2022-09-14T19:54:14.207Z,1.48
2022-09-14T20:01:34.753Z,1.60
2022-09-14T20:04:01.934Z,1.70
2022-09-14T20:06:32.721Z,1.42
2022-09-14T20:09:00.644Z,1.38
2022-09-14T20:18:50.348Z,1.73
2022-09-14T20:21:19.872Z,1.70
2022-09-14T20:24:11.522Z,1.70
2022-09-14T20:31:28.917Z,1.42
2022-09-14T20:33:58.243Z,1.90
2022-09-14T20:36:25.441Z,1.73
2022-09-14T20:38:54.531Z,2.22
2022-09-14T20:41:22.397Z,1.90
2022-09-14T20:53:34.838Z,1.85
2022-09-14T20:56:02.437Z,2.50
2022-09-14T21:01:06.061Z,1.65
2022-09-14T21:03:33.191Z,1.60
2022-09-14T21:06:01.467Z,1.80
2022-09-14T21:08:28.832Z,1.63
2022-09-14T21:13:21.007Z,1.83
2022-09-14T21:15:47.718Z,1.77
2022-09-14T21:20:40.255Z,1.67
2022-09-14T21:23:07.140Z,1.50
2022-09-14T21:25:33.871Z,1.65
2022-09-14T21:28:00.966Z,1.80
2022-09-14T21:30:28.009Z,1.77
2022-09-14T21:35:20.876Z,1.73
2022-09-14T21:37:48.905Z,1.75
2022-09-14T21:40:17.311Z,1.60
2022-09-14T21:47:39.093Z,1.50
2022-09-14T21:54:57.483Z,2.10
2022-09-14T21:57:25.181Z,1.40
2022-09-14T21:59:51.851Z,1.80
2022-09-14T22:02:18.557Z,1.63
2022-09-14T22:04:45.307Z,2.08
2022-09-14T22:07:11.917Z,2.00
2022-09-14T22:09:38.486Z,2.20
2022-09-14T22:12:05.143Z,1.88
2022-09-14T22:19:27.695Z,2.10
2022-09-14T22:21:54.565Z,2.22
2022-09-14T22:24:25.834Z,1.88
2022-09-14T22:26:52.586Z,2.30
2022-09-14T22:31:45.332Z,2.03
2022-09-14T22:34:12.708Z,2.30
2022-09-14T22:39:06.168Z,2.50
2022-09-14T22:41:32.827Z,1.80
2022-09-14T22:46:25.143Z,2.08
2022-09-14T22:48:52.607Z,2.20
2022-09-14T22:51:20.627Z,2.30
2022-09-14T22:54:05.824Z,2.33
2022-09-14T22:59:00.362Z,2.33
2022-09-14T23:01:28.701Z,2.17
2022-09-14T23:03:57.439Z,2.50
2022-09-14T23:06:28.087Z,2.40
2022-09-14T23:08:54.776Z,2.60
2022-09-14T23:11:21.598Z,2.30
2022-09-14T23:13:48.400Z,2.50
2022-09-14T23:16:16.488Z,2.80
2022-09-14T23:18:43.557Z,2.83
2022-09-14T23:21:10.507Z,2.38
2022-09-14T23:23:38.251Z,3.08
2022-09-14T23:26:06.555Z,3.03
2022-09-14T23:28:33.412Z,2.78
2022-09-14T23:31:00.362Z,3.15
2022-09-14T23:33:27.892Z,2.75
2022-09-14T23:35:54.529Z,3.03
2022-09-14T23:38:21.223Z,3.38
2022-09-14T23:43:15.910Z,3.45
2022-09-14T23:45:43.998Z,3.00
2022-09-14T23:48:10.946Z,3.22
2022-09-14T23:50:38.184Z,3.03
2022-09-14T23:53:05.398Z,3.70
2022-09-14T23:57:58.424Z,3.40
